createdAt,value
2017-10-18T00:00:14.195Z,1010.65
2017-10-18T00:01:14.170Z,1010.69
2017-10-18T00:02:14.150Z,1010.7
2017-10-18T00:03:14.254Z,1010.75
2017-10-18T00:04:14.110Z,1010.77
2017-10-18T00:05:14.094Z,1010.75
2017-10-18T00:06:14.075Z,1010.75
2017-10-18T00:07:14.079Z,1010.76
2017-10-18T00:08:14.040Z,1010.72
2017-10-18T00:09:14.025Z,1010.71
2017-10-18T00:10:14.000Z,1010.74
2017-10-18T00:11:13.990Z,1010.74
2017-10-18T00:12:13.963Z,1010.73
2017-10-18T00:13:13.949Z,1010.71
2017-10-18T00:14:13.929Z,1010.69
2017-10-18T00:15:13.911Z,1010.68
2017-10-18T00:16:13.892Z,1010.68
2017-10-18T00:17:13.873Z,1010.67
2017-10-18T00:18:13.855Z,1010.67
2017-10-18T00:19:13.841Z,1010.68
2017-10-18T00:20:13.824Z,1010.67
2017-10-18T00:21:13.801Z,1010.64
2017-10-18T00:22:13.782Z,1010.63
2017-10-18T00:23:13.761Z,1010.64
2017-10-18T00:24:13.751Z,1010.64
2017-10-18T00:25:13.730Z,1010.62
2017-10-18T00:26:13.711Z,1010.64
2017-10-18T00:27:13.693Z,1010.59
2017-10-18T00:28:13.671Z,1010.6
2017-10-18T00:29:13.654Z,1010.61
2017-10-18T00:30:13.634Z,1010.62
2017-10-18T00:31:13.620Z,1010.55
2017-10-18T00:32:13.602Z,1010.55
2017-10-18T00:33:13.584Z,1010.54
2017-10-18T00:34:13.567Z,1010.51
2017-10-18T00:35:13.547Z,1010.51
2017-10-18T00:36:13.530Z,1010.47
2017-10-18T00:37:13.508Z,1010.41
2017-10-18T00:38:13.487Z,1010.43
2017-10-18T00:39:13.474Z,1010.44
2017-10-18T00:40:13.451Z,1010.39
2017-10-18T00:41:13.442Z,1010.38
2017-10-18T00:42:13.413Z,1010.32
2017-10-18T00:43:13.399Z,1010.31
2017-10-18T00:44:13.380Z,1010.3
2017-10-18T00:45:13.360Z,1010.34
2017-10-18T00:46:13.341Z,1010.31
2017-10-18T00:47:13.350Z,1010.31
2017-10-18T00:48:13.304Z,1010.29
2017-10-18T00:49:13.288Z,1010.28
2017-10-18T00:50:13.271Z,1010.23
2017-10-18T00:51:13.253Z,1010.21
2017-10-18T00:52:13.233Z,1010.19
2017-10-18T00:53:13.221Z,1010.17
2017-10-18T00:54:13.198Z,1010.17
2017-10-18T00:55:13.182Z,1010.14
2017-10-18T00:56:13.161Z,1010.17
2017-10-18T00:57:13.141Z,1010.15
2017-10-18T00:58:13.124Z,1010.14
2017-10-18T00:59:13.114Z,1010.15
2017-10-18T01:00:13.094Z,1010.18
2017-10-18T01:01:13.068Z,1010.16
2017-10-18T01:02:13.052Z,1010.21
2017-10-18T01:03:13.033Z,1010.22
2017-10-18T01:04:13.012Z,1010.21
2017-10-18T01:05:13.006Z,1010.19
2017-10-18T01:06:12.983Z,1010.17
2017-10-18T01:07:12.962Z,1010.18
2017-10-18T01:08:12.939Z,1010.16
2017-10-18T01:09:12.975Z,1010.11
2017-10-18T01:10:12.901Z,1010.08
2017-10-18T01:11:12.988Z,1010.07
2017-10-18T01:12:12.872Z,1010.07
2017-10-18T01:13:12.947Z,1010.06
2017-10-18T01:14:12.826Z,1010.09
2017-10-18T01:15:12.812Z,1010.06
2017-10-18T01:16:12.790Z,1010.05
2017-10-18T01:17:12.782Z,1010.05
2017-10-18T01:18:12.757Z,1010.05
2017-10-18T01:19:12.774Z,1010.07
2017-10-18T01:20:12.722Z,1010.07
2017-10-18T01:21:12.706Z,1010.05
2017-10-18T01:22:12.680Z,1010.05
2017-10-18T01:23:12.813Z,1010.01
2017-10-18T01:24:12.643Z,1009.99
2017-10-18T01:25:12.630Z,1009.97
2017-10-18T01:26:12.611Z,1009.97
2017-10-18T01:27:12.587Z,1009.95
2017-10-18T01:28:12.571Z,1009.93
2017-10-18T01:29:12.554Z,1009.92
2017-10-18T01:30:12.532Z,1009.89
2017-10-18T01:31:12.620Z,1009.9
2017-10-18T01:32:12.498Z,1009.88
2017-10-18T01:33:12.481Z,1009.91
2017-10-18T01:34:12.460Z,1009.88
2017-10-18T01:35:12.440Z,1009.87
2017-10-18T01:36:12.419Z,1009.9
2017-10-18T01:37:12.404Z,1009.88
2017-10-18T01:38:12.389Z,1009.89
2017-10-18T01:39:12.370Z,1009.85
2017-10-18T01:40:12.352Z,1009.87
2017-10-18T01:41:12.381Z,1009.92
2017-10-18T01:42:12.311Z,1009.87
2017-10-18T01:43:12.393Z,1009.89
2017-10-18T01:44:12.276Z,1009.95
2017-10-18T01:45:12.272Z,1009.94
2017-10-18T01:46:12.243Z,1009.94
2017-10-18T01:47:12.239Z,1009.98
2017-10-18T01:48:12.202Z,1009.92
2017-10-18T01:49:12.183Z,1009.91
2017-10-18T01:50:12.164Z,1009.91
2017-10-18T01:51:12.152Z,1009.9
2017-10-18T01:52:12.132Z,1009.92
2017-10-18T01:53:12.108Z,1009.94
2017-10-18T01:54:12.102Z,1009.88
2017-10-18T01:55:12.071Z,1009.93
2017-10-18T01:56:12.052Z,1009.92
2017-10-18T01:57:12.033Z,1009.91
2017-10-18T01:58:12.018Z,1009.93
2017-10-18T01:59:11.998Z,1009.92
2017-10-18T02:00:11.978Z,1009.93
2017-10-18T02:01:11.962Z,1009.93
2017-10-18T02:02:11.944Z,1009.94
2017-10-18T02:03:11.930Z,1009.94
2017-10-18T02:04:11.907Z,1009.93
2017-10-18T02:05:11.885Z,1009.9
2017-10-18T02:06:11.872Z,1009.88
2017-10-18T02:07:11.851Z,1009.86
2017-10-18T02:08:11.837Z,1009.88
2017-10-18T02:09:11.817Z,1009.83
2017-10-18T02:10:11.792Z,1009.84
2017-10-18T02:11:11.777Z,1009.83
2017-10-18T02:12:11.768Z,1009.8
2017-10-18T02:13:11.792Z,1009.78
2017-10-18T02:14:11.717Z,1009.79
2017-10-18T02:15:11.701Z,1009.79
2017-10-18T02:16:11.681Z,1009.78
2017-10-18T02:17:11.671Z,1009.79
2017-10-18T02:18:11.651Z,1009.79
2017-10-18T02:19:11.632Z,1009.8
2017-10-18T02:20:11.613Z,1009.8
2017-10-18T02:21:11.591Z,1009.82
2017-10-18T02:22:11.571Z,1009.86
2017-10-18T02:23:11.553Z,1009.85
2017-10-18T02:24:11.543Z,1009.86
2017-10-18T02:25:11.522Z,1009.85
2017-10-18T02:26:11.498Z,1009.82
2017-10-18T02:27:11.481Z,1009.82
2017-10-18T02:28:11.462Z,1009.85
2017-10-18T02:29:11.442Z,1009.83
2017-10-18T02:30:11.431Z,1009.77
2017-10-18T02:31:11.407Z,1009.79
2017-10-18T02:32:11.397Z,1009.77
2017-10-18T02:33:11.370Z,1009.77
2017-10-18T02:34:11.353Z,1009.72
2017-10-18T02:35:11.335Z,1009.71
2017-10-18T02:36:11.321Z,1009.67
2017-10-18T02:37:11.299Z,1009.69
2017-10-18T02:38:11.282Z,1009.65
2017-10-18T02:39:11.260Z,1009.66
2017-10-18T02:40:11.244Z,1009.64
2017-10-18T02:41:11.222Z,1009.65
2017-10-18T02:42:11.203Z,1009.62
2017-10-18T02:43:11.233Z,1009.6
2017-10-18T02:44:11.172Z,1009.57
2017-10-18T02:45:11.178Z,1009.57
2017-10-18T02:46:11.133Z,1009.6
2017-10-18T02:47:11.117Z,1009.55
2017-10-18T02:48:11.091Z,1009.53
2017-10-18T02:49:11.073Z,1009.53
2017-10-18T02:50:11.060Z,1009.53
2017-10-18T02:51:11.044Z,1009.54
2017-10-18T02:52:11.021Z,1009.55
2017-10-18T02:53:10.998Z,1009.54
2017-10-18T02:54:11.004Z,1009.57
2017-10-18T02:55:10.970Z,1009.6
2017-10-18T02:56:10.951Z,1009.61
2017-10-18T02:57:10.932Z,1009.62
2017-10-18T02:58:10.913Z,1009.59
2017-10-18T02:59:10.891Z,1009.57
2017-10-18T03:00:10.871Z,1009.53
2017-10-18T03:01:10.855Z,1009.52
2017-10-18T03:02:10.834Z,1009.47
2017-10-18T03:03:10.868Z,1009.43
2017-10-18T03:04:10.802Z,1009.43
2017-10-18T03:05:10.782Z,1009.43
2017-10-18T03:06:10.764Z,1009.46
2017-10-18T03:07:10.744Z,1009.47
2017-10-18T03:08:10.730Z,1009.46
2017-10-18T03:09:10.712Z,1009.43
2017-10-18T03:10:10.692Z,1009.46
2017-10-18T03:11:10.673Z,1009.48
2017-10-18T03:12:10.652Z,1009.51
2017-10-18T03:13:10.685Z,1009.51
2017-10-18T03:14:10.615Z,1009.46
2017-10-18T03:15:10.599Z,1009.47
2017-10-18T03:16:10.583Z,1009.47
2017-10-18T03:17:10.564Z,1009.45
2017-10-18T03:18:10.552Z,1009.47
2017-10-18T03:19:10.572Z,1009.44
2017-10-18T03:20:10.509Z,1009.46
2017-10-18T03:21:10.486Z,1009.46
2017-10-18T03:22:10.467Z,1009.45
2017-10-18T03:23:10.701Z,1009.46
2017-10-18T03:24:10.430Z,1009.44
2017-10-18T03:25:10.411Z,1009.45
2017-10-18T03:26:10.391Z,1009.44
2017-10-18T03:27:10.380Z,1009.44
2017-10-18T03:28:10.362Z,1009.45
2017-10-18T03:29:10.340Z,1009.41
2017-10-18T03:30:10.322Z,1009.42
2017-10-18T03:31:10.302Z,1009.42
2017-10-18T03:32:10.285Z,1009.37
2017-10-18T03:33:10.266Z,1009.38
2017-10-18T03:34:10.249Z,1009.35
2017-10-18T03:35:10.230Z,1009.36
2017-10-18T03:36:10.213Z,1009.38
2017-10-18T03:37:10.192Z,1009.31
2017-10-18T03:38:10.177Z,1009.35
2017-10-18T03:39:10.156Z,1009.35
2017-10-18T03:40:10.142Z,1009.31
2017-10-18T03:41:10.118Z,1009.32
2017-10-18T03:42:10.102Z,1009.31
2017-10-18T03:43:10.085Z,1009.25
2017-10-18T03:44:10.063Z,1009.23
2017-10-18T03:45:10.050Z,1009.25
2017-10-18T03:46:10.031Z,1009.22
2017-10-18T03:47:10.010Z,1009.2
2017-10-18T03:48:09.993Z,1009.18
2017-10-18T03:49:09.972Z,1009.14
2017-10-18T03:50:09.951Z,1009.12
2017-10-18T03:51:09.939Z,1009.07
2017-10-18T03:52:09.922Z,1009.05
2017-10-18T03:53:09.905Z,1009.01
2017-10-18T03:54:09.881Z,1009.03
2017-10-18T03:55:09.862Z,1008.99
2017-10-18T03:56:09.843Z,1009
2017-10-18T03:57:09.829Z,1009.02
2017-10-18T03:58:09.812Z,1009.02
2017-10-18T03:59:09.791Z,1009.02
2017-10-18T04:00:09.773Z,1009
2017-10-18T04:01:09.751Z,1009.03
2017-10-18T04:02:09.737Z,1009.08
2017-10-18T04:03:09.719Z,1009.05
2017-10-18T04:04:09.703Z,1008.99
2017-10-18T04:05:09.682Z,1009.05
2017-10-18T04:06:09.664Z,1009.02
2017-10-18T04:07:09.661Z,1008.99
2017-10-18T04:08:09.635Z,1009.01
2017-10-18T04:09:09.609Z,1009.03
2017-10-18T04:10:09.588Z,1009.01
2017-10-18T04:11:09.572Z,1009.04
2017-10-18T04:12:09.551Z,1009.03
2017-10-18T04:13:09.533Z,1009.03
2017-10-18T04:14:09.515Z,1009.04
2017-10-18T04:15:09.507Z,1008.99
2017-10-18T04:16:09.479Z,1008.98
2017-10-18T04:17:09.465Z,1009.05
2017-10-18T04:18:09.443Z,1009.05
2017-10-18T04:19:09.420Z,1009.07
2017-10-18T04:20:09.411Z,1009.07
2017-10-18T04:21:09.395Z,1009.09
2017-10-18T04:22:09.372Z,1009.05
2017-10-18T04:23:09.347Z,1009.04
2017-10-18T04:24:09.335Z,1009.03
2017-10-18T04:25:09.335Z,1008.97
2017-10-18T04:26:09.302Z,1008.96
2017-10-18T04:27:09.281Z,1008.97
2017-10-18T04:28:09.261Z,1008.96
2017-10-18T04:29:09.240Z,1008.96
2017-10-18T04:30:09.220Z,1008.94
2017-10-18T04:31:09.201Z,1008.87
2017-10-18T04:32:09.189Z,1008.84
2017-10-18T04:33:09.172Z,1008.83
2017-10-18T04:34:09.151Z,1008.78
2017-10-18T04:35:09.130Z,1008.8
2017-10-18T04:36:09.113Z,1008.79
2017-10-18T04:37:09.095Z,1008.84
2017-10-18T04:38:09.074Z,1008.83
2017-10-18T04:39:09.054Z,1008.81
2017-10-18T04:40:09.044Z,1008.81
2017-10-18T04:41:09.022Z,1008.83
2017-10-18T04:42:09.001Z,1008.82
2017-10-18T04:43:08.984Z,1008.78
2017-10-18T04:44:08.971Z,1008.78
2017-10-18T04:45:08.949Z,1008.8
2017-10-18T04:46:08.929Z,1008.8
2017-10-18T04:47:08.911Z,1008.76
2017-10-18T04:48:08.892Z,1008.78
2017-10-18T04:49:08.871Z,1008.79
2017-10-18T04:50:08.882Z,1008.79
2017-10-18T04:51:08.838Z,1008.79
2017-10-18T04:52:08.833Z,1008.75
2017-10-18T04:53:08.801Z,1008.75
2017-10-18T04:54:08.781Z,1008.73
2017-10-18T04:55:08.784Z,1008.69
2017-10-18T04:56:08.742Z,1008.7
2017-10-18T04:57:08.733Z,1008.67
2017-10-18T04:58:08.711Z,1008.63
2017-10-18T04:59:08.692Z,1008.62
2017-10-18T05:00:08.678Z,1008.6
2017-10-18T05:01:08.652Z,1008.58
2017-10-18T05:02:08.634Z,1008.56
2017-10-18T05:03:08.621Z,1008.53
2017-10-18T05:04:08.601Z,1008.55
2017-10-18T05:05:08.581Z,1008.55
2017-10-18T05:06:08.560Z,1008.56
2017-10-18T05:07:08.546Z,1008.53
2017-10-18T05:08:08.529Z,1008.53
2017-10-18T05:09:08.511Z,1008.53
2017-10-18T05:10:08.493Z,1008.54
2017-10-18T05:11:08.470Z,1008.52
2017-10-18T05:12:08.451Z,1008.5
2017-10-18T05:13:08.430Z,1008.54
2017-10-18T05:14:08.421Z,1008.51
2017-10-18T05:15:08.401Z,1008.49
2017-10-18T05:16:08.379Z,1008.47
2017-10-18T05:17:08.360Z,1008.44
2017-10-18T05:18:08.350Z,1008.38
2017-10-18T05:19:08.329Z,1008.38
2017-10-18T05:20:08.309Z,1008.36
2017-10-18T05:21:08.287Z,1008.35
2017-10-18T05:22:08.275Z,1008.37
2017-10-18T05:23:08.262Z,1008.36
2017-10-18T05:24:08.235Z,1008.36
2017-10-18T05:25:08.215Z,1008.38
2017-10-18T05:26:08.209Z,1008.36
2017-10-18T05:27:08.183Z,1008.35
2017-10-18T05:28:08.163Z,1008.35
2017-10-18T05:29:08.151Z,1008.33
2017-10-18T05:30:08.125Z,1008.32
2017-10-18T05:31:08.114Z,1008.31
2017-10-18T05:32:08.089Z,1008.3
2017-10-18T05:33:08.081Z,1008.28
2017-10-18T05:34:08.055Z,1008.28
2017-10-18T05:35:08.032Z,1008.24
2017-10-18T05:36:08.017Z,1008.2
2017-10-18T05:37:08.001Z,1008.22
2017-10-18T05:38:07.981Z,1008.21
2017-10-18T05:39:07.962Z,1008.23
2017-10-18T05:40:07.954Z,1008.2
2017-10-18T05:41:07.927Z,1008.2
2017-10-18T05:42:07.910Z,1008.2
2017-10-18T05:43:07.890Z,1008.14
2017-10-18T05:44:07.871Z,1008.14
2017-10-18T05:45:07.882Z,1008.14
2017-10-18T05:46:07.839Z,1008.14
2017-10-18T05:47:07.819Z,1008.13
2017-10-18T05:48:08.101Z,1008.16
2017-10-18T05:49:07.785Z,1008.13
2017-10-18T05:50:07.771Z,1008.1
2017-10-18T05:51:07.743Z,1008.07
2017-10-18T05:52:07.732Z,1008.06
2017-10-18T05:53:07.713Z,1008.05
2017-10-18T05:54:07.686Z,1008.08
2017-10-18T05:55:07.682Z,1008.07
2017-10-18T05:56:07.657Z,1008.04
2017-10-18T05:57:07.639Z,1008
2017-10-18T05:58:07.615Z,1008.04
2017-10-18T05:59:07.600Z,1008.04
2017-10-18T06:00:07.583Z,1008.05
2017-10-18T06:01:07.561Z,1008.04
2017-10-18T06:02:07.549Z,1008.04
2017-10-18T06:03:07.531Z,1008.07
2017-10-18T06:04:07.504Z,1008.06
2017-10-18T06:05:07.490Z,1008.04
2017-10-18T06:06:07.471Z,1008.02
2017-10-18T06:07:07.454Z,1007.99
2017-10-18T06:08:07.443Z,1008
2017-10-18T06:09:07.424Z,1008.04
2017-10-18T06:10:07.396Z,1007.98
2017-10-18T06:11:07.375Z,1008.03
2017-10-18T06:12:07.359Z,1008.01
2017-10-18T06:13:07.343Z,1007.99
2017-10-18T06:14:07.321Z,1007.98
2017-10-18T06:15:07.303Z,1007.98
2017-10-18T06:16:07.293Z,1007.94
2017-10-18T06:17:07.271Z,1007.92
2017-10-18T06:18:07.248Z,1007.92
2017-10-18T06:19:07.226Z,1007.87
2017-10-18T06:20:07.208Z,1007.86
2017-10-18T06:21:07.191Z,1007.85
2017-10-18T06:22:07.173Z,1007.85
2017-10-18T06:23:07.155Z,1007.91
2017-10-18T06:24:07.140Z,1007.88
2017-10-18T06:25:07.126Z,1007.86
2017-10-18T06:26:07.106Z,1007.86
2017-10-18T06:27:07.081Z,1007.85
2017-10-18T06:28:07.057Z,1007.86
2017-10-18T06:29:07.050Z,1007.89
2017-10-18T06:30:07.022Z,1007.85
2017-10-18T06:31:07.002Z,1007.84
2017-10-18T06:32:06.993Z,1007.84
2017-10-18T06:33:06.972Z,1007.87
2017-10-18T06:34:06.951Z,1007.82
2017-10-18T06:35:06.924Z,1007.84
2017-10-18T06:36:06.914Z,1007.85
2017-10-18T06:37:06.892Z,1007.82
2017-10-18T06:38:06.871Z,1007.83
2017-10-18T06:39:06.854Z,1007.85
2017-10-18T06:40:06.832Z,1007.78
2017-10-18T06:41:06.827Z,1007.79
2017-10-18T06:42:06.801Z,1007.73
2017-10-18T06:43:06.771Z,1007.76
2017-10-18T06:44:06.761Z,1007.73
2017-10-18T06:45:06.736Z,1007.75
2017-10-18T06:46:06.721Z,1007.75
2017-10-18T06:47:06.701Z,1007.75
2017-10-18T06:48:06.681Z,1007.76
2017-10-18T06:49:06.658Z,1007.73
2017-10-18T06:50:06.643Z,1007.71
2017-10-18T06:51:06.630Z,1007.71
2017-10-18T06:52:06.606Z,1007.68
2017-10-18T06:53:06.592Z,1007.69
2017-10-18T06:54:06.569Z,1007.7
2017-10-18T06:55:06.545Z,1007.73
2017-10-18T06:56:06.533Z,1007.69
2017-10-18T06:57:06.513Z,1007.67
2017-10-18T06:58:06.486Z,1007.66
2017-10-18T06:59:06.471Z,1007.69
2017-10-18T07:00:06.451Z,1007.7
2017-10-18T07:01:06.431Z,1007.71
2017-10-18T07:02:06.414Z,1007.7
2017-10-18T07:03:06.391Z,1007.74
2017-10-18T07:04:06.371Z,1007.7
2017-10-18T07:05:06.358Z,1007.71
2017-10-18T07:06:06.342Z,1007.7
2017-10-18T07:07:06.325Z,1007.69
2017-10-18T07:08:06.300Z,1007.69
2017-10-18T07:09:06.279Z,1007.7
2017-10-18T07:10:06.261Z,1007.69
2017-10-18T07:11:06.242Z,1007.66
2017-10-18T07:12:06.220Z,1007.65
2017-10-18T07:13:06.201Z,1007.63
2017-10-18T07:14:06.181Z,1007.66
2017-10-18T07:15:06.168Z,1007.64
2017-10-18T07:16:06.150Z,1007.62
2017-10-18T07:17:06.132Z,1007.64
2017-10-18T07:18:06.107Z,1007.6
2017-10-18T07:19:06.090Z,1007.6
2017-10-18T07:20:06.083Z,1007.62
2017-10-18T07:21:06.051Z,1007.65
2017-10-18T07:22:06.030Z,1007.63
2017-10-18T07:23:06.012Z,1007.64
2017-10-18T07:24:06.011Z,1007.64
2017-10-18T07:25:05.983Z,1007.65
2017-10-18T07:26:05.963Z,1007.64
2017-10-18T07:27:05.937Z,1007.66
2017-10-18T07:28:05.925Z,1007.65
2017-10-18T07:29:05.905Z,1007.66
2017-10-18T07:30:05.879Z,1007.65
2017-10-18T07:31:05.861Z,1007.68
2017-10-18T07:32:05.843Z,1007.66
2017-10-18T07:33:05.825Z,1007.68
2017-10-18T07:34:05.813Z,1007.69
2017-10-18T07:35:05.790Z,1007.69
2017-10-18T07:36:05.766Z,1007.7
2017-10-18T07:37:05.748Z,1007.69
2017-10-18T07:38:05.728Z,1007.68
2017-10-18T07:39:05.709Z,1007.68
2017-10-18T07:40:05.703Z,1007.67
2017-10-18T07:41:05.670Z,1007.68
2017-10-18T07:42:05.654Z,1007.69
2017-10-18T07:43:05.640Z,1007.7
2017-10-18T07:44:05.618Z,1007.73
2017-10-18T07:45:05.601Z,1007.7
2017-10-18T07:46:05.580Z,1007.71
2017-10-18T07:47:05.562Z,1007.72
2017-10-18T07:48:05.540Z,1007.68
2017-10-18T07:49:05.529Z,1007.69
2017-10-18T07:50:05.509Z,1007.68
2017-10-18T07:51:05.485Z,1007.72
2017-10-18T07:52:05.471Z,1007.71
2017-10-18T07:53:05.449Z,1007.74
2017-10-18T07:54:05.432Z,1007.7
2017-10-18T07:55:05.415Z,1007.71
2017-10-18T07:56:05.392Z,1007.74
2017-10-18T07:57:05.373Z,1007.7
2017-10-18T07:58:05.352Z,1007.73
2017-10-18T07:59:05.335Z,1007.7
2017-10-18T08:00:05.318Z,1007.68
2017-10-18T08:01:05.298Z,1007.68
2017-10-18T08:02:05.279Z,1007.65
2017-10-18T08:03:05.260Z,1007.61
2017-10-18T08:04:05.240Z,1007.64
2017-10-18T08:05:05.221Z,1007.64
2017-10-18T08:06:05.211Z,1007.63
2017-10-18T08:07:05.185Z,1007.63
2017-10-18T08:08:05.172Z,1007.67
2017-10-18T08:09:05.153Z,1007.67
2017-10-18T08:10:05.132Z,1007.67
2017-10-18T08:11:05.112Z,1007.67
2017-10-18T08:12:05.094Z,1007.64
2017-10-18T08:13:05.083Z,1007.65
2017-10-18T08:14:05.068Z,1007.62
2017-10-18T08:15:05.043Z,1007.61
2017-10-18T08:16:05.021Z,1007.62
2017-10-18T08:17:05.005Z,1007.61
2017-10-18T08:18:04.988Z,1007.63
2017-10-18T08:19:04.963Z,1007.66
2017-10-18T08:20:04.949Z,1007.6
2017-10-18T08:21:04.936Z,1007.64
2017-10-18T08:22:04.913Z,1007.62
2017-10-18T08:23:04.896Z,1007.63
2017-10-18T08:24:04.903Z,1007.64
2017-10-18T08:25:04.864Z,1007.67
2017-10-18T08:26:04.848Z,1007.66
2017-10-18T08:27:04.823Z,1007.64
2017-10-18T08:28:04.808Z,1007.63
2017-10-18T08:29:04.792Z,1007.61
2017-10-18T08:30:04.774Z,1007.6
2017-10-18T08:31:04.757Z,1007.59
2017-10-18T08:32:04.734Z,1007.58
2017-10-18T08:33:04.728Z,1007.57
2017-10-18T08:34:04.702Z,1007.56
2017-10-18T08:35:04.693Z,1007.57
2017-10-18T08:36:04.663Z,1007.53
2017-10-18T08:37:04.658Z,1007.54
2017-10-18T08:38:04.633Z,1007.54
2017-10-18T08:39:04.614Z,1007.55
2017-10-18T08:40:04.592Z,1007.59
2017-10-18T08:41:04.574Z,1007.6
2017-10-18T08:42:04.556Z,1007.62
2017-10-18T08:43:04.533Z,1007.6
2017-10-18T08:44:04.512Z,1007.58
2017-10-18T08:45:04.494Z,1007.56
2017-10-18T08:46:04.486Z,1007.58
2017-10-18T08:47:04.460Z,1007.6
2017-10-18T08:48:04.439Z,1007.61
2017-10-18T08:49:04.425Z,1007.6
2017-10-18T08:50:04.403Z,1007.62
2017-10-18T08:51:04.386Z,1007.61
2017-10-18T08:52:04.367Z,1007.65
2017-10-18T08:53:04.354Z,1007.6
2017-10-18T08:54:04.332Z,1007.69
2017-10-18T08:55:04.312Z,1007.65
2017-10-18T08:56:04.303Z,1007.69
2017-10-18T08:57:04.283Z,1007.71
2017-10-18T08:58:04.266Z,1007.72
2017-10-18T08:59:04.266Z,1007.73
2017-10-18T09:00:04.225Z,1007.71
2017-10-18T09:01:04.212Z,1007.72
2017-10-18T09:02:04.193Z,1007.74
2017-10-18T09:03:04.178Z,1007.71
2017-10-18T09:04:04.163Z,1007.68
2017-10-18T09:05:04.141Z,1007.72
2017-10-18T09:06:04.120Z,1007.7
2017-10-18T09:07:04.103Z,1007.72
2017-10-18T09:08:04.091Z,1007.72
2017-10-18T09:09:04.066Z,1007.72
2017-10-18T09:10:04.052Z,1007.71
2017-10-18T09:11:04.029Z,1007.7
2017-10-18T09:12:04.017Z,1007.7
2017-10-18T09:13:03.997Z,1007.7
2017-10-18T09:14:03.981Z,1007.71
2017-10-18T09:15:03.960Z,1007.74
2017-10-18T09:16:03.947Z,1007.7
2017-10-18T09:17:03.926Z,1007.76
2017-10-18T09:18:03.914Z,1007.73
2017-10-18T09:19:03.895Z,1007.74
2017-10-18T09:20:03.880Z,1007.73
2017-10-18T09:21:03.871Z,1007.7
2017-10-18T09:22:03.843Z,1007.69
2017-10-18T09:23:03.833Z,1007.72
2017-10-18T09:24:03.815Z,1007.72
2017-10-18T09:25:03.788Z,1007.73
2017-10-18T09:26:03.784Z,1007.74
2017-10-18T09:27:03.760Z,1007.73
2017-10-18T09:28:03.762Z,1007.75
2017-10-18T09:29:03.729Z,1007.77
2017-10-18T09:30:03.711Z,1007.74
2017-10-18T09:31:03.691Z,1007.76
2017-10-18T09:32:03.674Z,1007.75
2017-10-18T09:33:03.657Z,1007.76
2017-10-18T09:34:03.649Z,1007.75
2017-10-18T09:35:03.631Z,1007.72
2017-10-18T09:36:03.607Z,1007.69
2017-10-18T09:37:03.589Z,1007.72
2017-10-18T09:38:03.573Z,1007.7
2017-10-18T09:39:03.549Z,1007.69
2017-10-18T09:40:03.545Z,1007.71
2017-10-18T09:41:03.521Z,1007.72
2017-10-18T09:42:03.503Z,1007.71
2017-10-18T09:43:03.483Z,1007.69
2017-10-18T09:44:03.473Z,1007.67
2017-10-18T09:45:03.453Z,1007.71
2017-10-18T09:46:03.535Z,1007.68
2017-10-18T09:47:03.443Z,1007.65
2017-10-18T09:48:03.502Z,1007.63
2017-10-18T09:49:03.391Z,1007.66
2017-10-18T09:50:03.400Z,1007.71
2017-10-18T09:51:03.358Z,1007.63
2017-10-18T09:52:03.374Z,1007.63
2017-10-18T09:53:03.324Z,1007.62
2017-10-18T09:54:03.302Z,1007.62
2017-10-18T09:55:03.282Z,1007.64
2017-10-18T09:56:03.266Z,1007.66
2017-10-18T09:57:03.251Z,1007.66
2017-10-18T09:58:03.291Z,1007.67
2017-10-18T09:59:03.212Z,1007.72
2017-10-18T10:00:03.204Z,1007.66
2017-10-18T10:01:03.182Z,1007.62
2017-10-18T10:02:03.173Z,1007.61
2017-10-18T10:03:03.152Z,1007.62
2017-10-18T10:04:03.145Z,1007.59
2017-10-18T10:05:03.132Z,1007.62
2017-10-18T10:06:03.201Z,1007.63
2017-10-18T10:07:03.080Z,1007.66
2017-10-18T10:08:03.070Z,1007.63
2017-10-18T10:09:03.062Z,1007.69
2017-10-18T10:10:03.038Z,1007.71
2017-10-18T10:11:03.021Z,1007.68
2017-10-18T10:12:03.002Z,1007.67
2017-10-18T10:13:02.986Z,1007.71
2017-10-18T10:14:02.975Z,1007.72
2017-10-18T10:15:02.948Z,1007.7
2017-10-18T10:16:02.941Z,1007.69
2017-10-18T10:17:02.920Z,1007.62
2017-10-18T10:18:02.903Z,1007.62
2017-10-18T10:19:02.901Z,1007.65
2017-10-18T10:20:02.868Z,1007.65
2017-10-18T10:21:02.853Z,1007.65
2017-10-18T10:22:02.842Z,1007.63
2017-10-18T10:23:02.822Z,1007.66
2017-10-18T10:24:02.812Z,1007.63
2017-10-18T10:25:02.792Z,1007.64
2017-10-18T10:26:02.782Z,1007.64
2017-10-18T10:27:02.775Z,1007.68
2017-10-18T10:28:02.753Z,1007.69
2017-10-18T10:29:02.740Z,1007.72
2017-10-18T10:30:02.733Z,1007.73
2017-10-18T10:31:02.714Z,1007.69
2017-10-18T10:32:02.698Z,1007.69
2017-10-18T10:33:02.695Z,1007.69
2017-10-18T10:34:02.683Z,1007.64
2017-10-18T10:35:02.661Z,1007.65
2017-10-18T10:36:02.649Z,1007.65
2017-10-18T10:37:02.641Z,1007.67
2017-10-18T10:38:02.633Z,1007.66
2017-10-18T10:39:02.629Z,1007.63
2017-10-18T10:40:02.604Z,1007.63
2017-10-18T10:41:02.594Z,1007.69
2017-10-18T10:42:02.582Z,1007.66
2017-10-18T10:43:02.578Z,1007.64
2017-10-18T10:44:02.561Z,1007.65
2017-10-18T10:45:02.556Z,1007.64
2017-10-18T10:46:02.540Z,1007.66
2017-10-18T10:47:02.534Z,1007.65
2017-10-18T10:48:02.521Z,1007.63
2017-10-18T10:49:02.515Z,1007.66
2017-10-18T10:50:02.514Z,1007.62
2017-10-18T10:51:02.504Z,1007.61
2017-10-18T10:52:02.483Z,1007.58
2017-10-18T10:53:02.476Z,1007.56
2017-10-18T10:54:02.460Z,1007.56
2017-10-18T10:55:02.454Z,1007.5
2017-10-18T10:56:02.441Z,1007.53
2017-10-18T10:57:02.432Z,1007.49
2017-10-18T10:58:02.432Z,1007.5
2017-10-18T10:59:02.413Z,1007.47
2017-10-18T11:00:02.405Z,1007.45
2017-10-18T11:01:02.407Z,1007.44
2017-10-18T11:02:02.384Z,1007.49
2017-10-18T11:03:02.374Z,1007.43
2017-10-18T11:04:02.361Z,1007.42
2017-10-18T11:05:02.360Z,1007.42
2017-10-18T11:06:02.344Z,1007.41
2017-10-18T11:07:02.341Z,1007.41
2017-10-18T11:08:02.331Z,1007.37
2017-10-18T11:09:02.320Z,1007.37
2017-10-18T11:10:02.317Z,1007.34
2017-10-18T11:11:02.306Z,1007.38
2017-10-18T11:12:02.295Z,1007.31
2017-10-18T11:13:02.284Z,1007.29
2017-10-18T11:14:02.285Z,1007.3
2017-10-18T11:15:02.265Z,1007.25
2017-10-18T11:16:02.256Z,1007.22
2017-10-18T11:17:02.242Z,1007.23
2017-10-18T11:18:02.231Z,1007.17
2017-10-18T11:19:02.230Z,1007.2
2017-10-18T11:20:02.223Z,1007.17
2017-10-18T11:21:02.203Z,1007.17
2017-10-18T11:22:02.201Z,1007.13
2017-10-18T11:23:02.194Z,1007.13
2017-10-18T11:24:02.179Z,1007.1
2017-10-18T11:25:02.173Z,1007.08
2017-10-18T11:26:02.166Z,1007.03
2017-10-18T11:27:02.151Z,1007
2017-10-18T11:28:02.144Z,1007
2017-10-18T11:29:02.131Z,1006.96
2017-10-18T11:30:02.130Z,1006.99
2017-10-18T11:31:02.111Z,1006.94
2017-10-18T11:32:02.113Z,1006.96
2017-10-18T11:33:02.098Z,1006.93
2017-10-18T11:34:02.094Z,1006.89
2017-10-18T11:35:02.080Z,1006.88
2017-10-18T11:36:02.074Z,1006.89
2017-10-18T11:37:02.086Z,1006.86
2017-10-18T11:38:02.051Z,1006.82
2017-10-18T11:39:02.038Z,1006.81
2017-10-18T11:40:02.030Z,1006.79
2017-10-18T11:41:02.021Z,1006.84
2017-10-18T11:42:02.019Z,1006.83
2017-10-18T11:43:02.004Z,1006.84
2017-10-18T11:44:01.995Z,1006.84
2017-10-18T11:45:01.985Z,1006.83
2017-10-18T11:46:01.983Z,1006.84
2017-10-18T11:47:01.972Z,1006.84
2017-10-18T11:48:01.960Z,1006.86
2017-10-18T11:49:01.952Z,1006.88
2017-10-18T11:50:01.941Z,1006.86
2017-10-18T11:51:01.927Z,1006.86
2017-10-18T11:52:01.921Z,1006.86
2017-10-18T11:53:01.910Z,1006.91
2017-10-18T11:54:01.912Z,1006.87
2017-10-18T11:55:01.892Z,1006.91
2017-10-18T11:56:01.893Z,1006.88
2017-10-18T11:57:01.876Z,1006.9
2017-10-18T11:58:01.887Z,1006.89
2017-10-18T11:59:01.859Z,1006.86
2017-10-18T12:00:01.899Z,1006.87
2017-10-18T12:01:01.838Z,1006.83
2017-10-18T12:02:01.841Z,1006.81
2017-10-18T12:03:01.821Z,1006.84
2017-10-18T12:04:01.821Z,1006.81
2017-10-18T12:05:01.807Z,1006.86
2017-10-18T12:06:01.797Z,1006.8
2017-10-18T12:07:01.789Z,1006.82
2017-10-18T12:08:01.775Z,1006.83